Kyokuho Maru No.15 — JI3715 — position and weather

sailwx.info

Track history (hours):
 
Tides and Currents Weather Stations Pressure Air Temp Water Temp Dewpoint Dewpoint Depression Visibility Wind Speed Wind Dir Waves Ship Positions

Kyokuho Maru No.15

Last reported at 2018-Apr-19 19:42 UTC. Time now 2018-Apr-21 09:52 UTC.
Position N 33°14' E 132°01'.

Length 63 m; draft 4.2 m.

Type: Tanker. MMSI: 431301714.

Date/timePositionNaut miles runAvg speedWind from/ knotsBaromVisibWave heightAir tempDewpointWater temp
2018-Apr-19 19:42N 33°14' E 132°01'313.6
2018-Apr-19 19:30N 33°17' E 132°00'611.9
2018-Apr-19 19:00N 33°23' E 131°60'913.0
2018-Apr-19 18:20N 33°29' E 132°07'412.8
2018-Apr-19 18:00N 33°32' E 132°11'612.4
2018-Apr-19 17:30N 33°36' E 132°16'612.1
2018-Apr-19 16:58N 33°41' E 132°21'611.6
2018-Apr-19 16:28N 33°45' E 132°26'511.3
2018-Apr-19 16:00N 33°49' E 132°31'711.0
2018-Apr-19 15:25N 33°53' E 132°36'4 9.8
2018-Apr-19 15:00N 33°56' E 132°40'4 8.6
2018-Apr-19 14:30N 33°59' E 132°43'78 1.5
2018-Apr-17 11:25N 34°25' E 134°12'612.6
2018-Apr-17 10:56N 34°25' E 134°20'511.8
2018-Apr-17 10:30N 34°27' E 134°26'611.7
2018-Apr-17 10:00N 34°29' E 134°32'611.8
2018-Apr-17 09:30N 34°31' E 134°39'611.6
2018-Apr-17 09:00N 34°33' E 134°45'611.4
2018-Apr-17 08:30N 34°35' E 134°52'510.9
2018-Apr-17 08:00N 34°37' E 134°58'4 8.5
2018-Apr-17 07:30N 34°36' E 135°03'510.8
2018-Apr-17 07:00N 34°37' E 135°09'611.4
2018-Apr-17 06:30N 34°38' E 135°16'2 3.4
2018-Apr-17 06:00N 34°39' E 135°18'0 0.0
2018-Apr-17 05:30N 34°39' E 135°18'0 0.0
2018-Apr-17 05:00N 34°39' E 135°18'0 0.1
2018-Apr-17 04:30N 34°39' E 135°18'0 0.1
2018-Apr-17 04:01N 34°39' E 135°18'0 0.1
2018-Apr-17 03:30N 34°39' E 135°18'0 0.0
2018-Apr-17 03:00N 34°39' E 135°18'0 0.0
2018-Apr-17 02:30N 34°39' E 135°18'0 0.0
2018-Apr-17 02:00N 34°39' E 135°18'0 0.0
2018-Apr-17 01:30N 34°39' E 135°18'0 0.0
2018-Apr-17 01:01N 34°39' E 135°18'0 0.0
2018-Apr-17 00:30N 34°39' E 135°18'0 0.0
2018-Apr-17 00:00N 34°39' E 135°18'0 0.0
2018-Apr-16 23:29N 34°39' E 135°18'0 0.0
2018-Apr-16 23:00N 34°39' E 135°18'0 0.0
2018-Apr-16 22:30N 34°39' E 135°18'0 0.5
2018-Apr-16 22:00N 34°39' E 135°17'2 3.5
2018-Apr-16 21:30N 34°38' E 135°19'612.2
2018-Apr-16 21:00N 34°33' E 135°23'2 4.1
2018-Apr-16 20:28N 34°31' E 135°24'0 0.0
2018-Apr-16 19:58N 34°31' E 135°24'0 0.0
2018-Apr-16 19:28N 34°31' E 135°24'0 0.0
2018-Apr-16 18:58N 34°31' E 135°24'0 0.0
2018-Apr-16 18:28N 34°31' E 135°24'0 0.0
2018-Apr-16 17:55N 34°31' E 135°24'0 0.0
2018-Apr-16 17:28N 34°31' E 135°24'0 0.0
2018-Apr-16 16:58N 34°31' E 135°24'0 0.0
2018-Apr-16 16:28N 34°31' E 135°24'0 0.0
2018-Apr-16 15:58N 34°31' E 135°24'0 0.0
2018-Apr-16 15:28N 34°31' E 135°24'0 0.0
2018-Apr-16 14:55N 34°31' E 135°24'0 0.0
2018-Apr-16 14:28N 34°31' E 135°24'0 0.0
2018-Apr-16 13:58N 34°31' E 135°24'0 0.0
2018-Apr-16 13:28N 34°31' E 135°24'0 0.0
2018-Apr-16 12:58N 34°31' E 135°24'0 0.0
2018-Apr-16 12:28N 34°31' E 135°24'0 0.0
2018-Apr-16 11:55N 34°31' E 135°24'0 0.0
2018-Apr-16 11:28N 34°31' E 135°24'0 0.0
2018-Apr-16 10:58N 34°31' E 135°24'0 0.0
2018-Apr-16 10:25N 34°31' E 135°24'0 0.0
2018-Apr-16 09:58N 34°31' E 135°24'0 0.0
2018-Apr-16 09:25N 34°31' E 135°24'0 0.0
2018-Apr-16 08:58N 34°31' E 135°24'0 0.0
2018-Apr-16 08:25N 34°31' E 135°24'0 0.0
2018-Apr-16 07:58N 34°31' E 135°24'0 0.0
2018-Apr-16 07:31N 34°31' E 135°24'4 7.4
2018-Apr-16 07:01N 34°34' E 135°23'611.5
2018-Apr-16 06:30N 34°40' E 135°25'0 0.5
2018-Apr-16 05:59N 34°40' E 135°25'0 0.0
2018-Apr-16 05:29N 34°40' E 135°25'0 0.0
2018-Apr-16 04:59N 34°40' E 135°25'0 0.0
2018-Apr-16 04:29N 34°40' E 135°25'0 0.0
2018-Apr-16 03:53N 34°40' E 135°25'0 0.0
2018-Apr-16 03:30N 34°40' E 135°25'0 0.0
2018-Apr-16 03:00N 34°40' E 135°25'0 0.0
2018-Apr-16 02:30N 34°40' E 135°25'0 0.0
2018-Apr-16 02:00N 34°40' E 135°25'1 2.2
2018-Apr-16 01:31N 34°39' E 135°25'2 4.1
2018-Apr-16 01:00N 34°38' E 135°27'1 1.4
2018-Apr-16 00:30N 34°38' E 135°27'1 2.4
2018-Apr-16 00:00N 34°38' E 135°29'0 0.0
2018-Apr-15 23:27N 34°38' E 135°29'0 0.0
2018-Apr-15 23:00N 34°38' E 135°29'0 0.0
2018-Apr-15 22:30N 34°38' E 135°29'0 0.1
2018-Apr-15 22:00N 34°38' E 135°29'0 0.1
2018-Apr-15 21:27N 34°38' E 135°29'0 0.1
2018-Apr-15 21:00N 34°38' E 135°29'0 0.0
2018-Apr-15 20:30N 34°38' E 135°29'0 0.0
2018-Apr-15 19:57N 34°38' E 135°29'0 0.1
2018-Apr-15 19:30N 34°38' E 135°29'0 0.1
2018-Apr-15 19:00N 34°38' E 135°29'0 0.1
2018-Apr-15 18:30N 34°38' E 135°29'0 0.0
2018-Apr-15 17:57N 34°38' E 135°29'0 0.1
2018-Apr-15 17:30N 34°38' E 135°29'0 0.1
2018-Apr-15 17:00N 34°38' E 135°29'0 0.1
2018-Apr-15 16:30N 34°38' E 135°29'0 0.1
2018-Apr-15 16:00N 34°38' E 135°29'0 0.0
2018-Apr-15 15:30N 34°38' E 135°29'0 0.0
2018-Apr-15 15:00N 34°38' E 135°29'0 0.0
2018-Apr-15 14:30N 34°38' E 135°29'0 0.0
2018-Apr-15 14:00N 34°38' E 135°29'0 0.0
2018-Apr-15 13:27N 34°38' E 135°29'0 0.1
2018-Apr-15 13:00N 34°38' E 135°29'0 0.1
2018-Apr-15 12:30N 34°38' E 135°29'0 0.0
2018-Apr-15 12:00N 34°38' E 135°29'0 0.1
2018-Apr-15 11:30N 34°38' E 135°29'0 0.1
2018-Apr-15 11:00N 34°38' E 135°29'0 0.0
2018-Apr-15 10:27N 34°38' E 135°29'0 0.1
2018-Apr-15 10:00N 34°38' E 135°29'0 0.0
2018-Apr-15 09:27N 34°38' E 135°29'0 0.1
2018-Apr-15 09:00N 34°38' E 135°29'0 0.1
2018-Apr-15 08:30N 34°38' E 135°29'0 0.1
2018-Apr-15 08:00N 34°38' E 135°29'0 0.0
2018-Apr-15 07:30N 34°38' E 135°29'0 0.0
2018-Apr-15 07:00N 34°38' E 135°29'0 0.0
2018-Apr-15 06:30N 34°38' E 135°29'0 0.1
2018-Apr-15 06:00N 34°38' E 135°29'0 0.0
2018-Apr-15 05:30N 34°38' E 135°29'0 0.0
2018-Apr-15 04:57N 34°38' E 135°29'0 0.1
2018-Apr-15 04:30N 34°38' E 135°29'0 0.1
2018-Apr-15 04:00N 34°38' E 135°29'0 0.1
2018-Apr-15 03:30N 34°38' E 135°29'0 0.0
2018-Apr-15 03:00N 34°38' E 135°29'0 0.0
2018-Apr-15 02:30N 34°38' E 135°29'0 0.1
2018-Apr-15 02:00N 34°38' E 135°29'0 0.0
2018-Apr-15 01:30N 34°38' E 135°29'0 0.1
2018-Apr-15 01:00N 34°38' E 135°29'0 0.0
2018-Apr-15 00:30N 34°38' E 135°29'0 0.0
2018-Apr-15 00:00N 34°38' E 135°29'0 0.0
2018-Apr-14 23:30N 34°38' E 135°29'0 0.1
2018-Apr-14 23:00N 34°38' E 135°29'0 0.0
2018-Apr-14 22:27N 34°38' E 135°29'0 0.1
2018-Apr-14 22:00N 34°38' E 135°29'0 0.0
2018-Apr-14 21:27N 34°38' E 135°29'0 0.0
2018-Apr-14 20:57N 34°38' E 135°29'0 0.0
2018-Apr-14 20:30N 34°38' E 135°29'0 0.0
2018-Apr-14 20:00N 34°38' E 135°29'0 0.0
2018-Apr-14 19:30N 34°38' E 135°29'0 0.0
2018-Apr-14 18:57N 34°38' E 135°29'0 0.0
2018-Apr-14 18:30N 34°38' E 135°29'0 0.0
2018-Apr-14 18:00N 34°38' E 135°29'0 0.0
2018-Apr-14 17:30N 34°38' E 135°29'0 0.0
2018-Apr-14 17:00N 34°38' E 135°29'0 0.0
2018-Apr-14 16:27N 34°38' E 135°29'0 0.0
2018-Apr-14 15:57N 34°38' E 135°29'0 0.0
2018-Apr-14 15:27N 34°38' E 135°29'0 0.0
2018-Apr-14 15:00N 34°38' E 135°29'0 0.0
2018-Apr-14 14:30N 34°38' E 135°29'0 0.0
2018-Apr-14 13:57N 34°38' E 135°29'0 0.0
2018-Apr-14 13:30N 34°38' E 135°29'0 0.0
2018-Apr-14 13:00N 34°38' E 135°29'0 0.1
2018-Apr-14 12:27N 34°38' E 135°29'0 0.1
2018-Apr-14 12:00N 34°38' E 135°29'0 0.0
2018-Apr-14 11:27N 34°38' E 135°29'0 0.0
2018-Apr-14 11:00N 34°38' E 135°29'0 0.0
2018-Apr-14 10:30N 34°38' E 135°29'0 0.0
2018-Apr-14 10:00N 34°38' E 135°29'0 0.1
2018-Apr-14 09:30N 34°38' E 135°29'0 0.1
2018-Apr-14 09:00N 34°38' E 135°29'0 0.4
2018-Apr-14 08:30N 34°38' E 135°29'3 5.9
2018-Apr-14 08:00N 34°39' E 135°25'611.3
2018-Apr-14 07:30N 34°40' E 135°18'3 6.4
2018-Apr-14 06:59N 34°42' E 135°15'0 0.0
2018-Apr-14 06:29N 34°42' E 135°15'0 0.0
2018-Apr-14 05:59N 34°42' E 135°15'0 0.0
2018-Apr-14 05:29N 34°42' E 135°15'0 0.0
2018-Apr-14 04:59N 34°42' E 135°15'0 0.0
2018-Apr-14 04:29N 34°42' E 135°15'0 0.0
2018-Apr-14 04:00N 34°42' E 135°15'0 0.0
2018-Apr-14 03:30N 34°42' E 135°15'0 0.7
2018-Apr-14 03:00N 34°42' E 135°15'4 8.4
2018-Apr-14 02:30N 34°38' E 135°15'611.2
2018-Apr-14 02:00N 34°36' E 135°09'510.8
2018-Apr-14 01:30N 34°36' E 135°02'511.0
2018-Apr-14 01:00N 34°35' E 134°56'510.4
2018-Apr-14 00:30N 34°33' E 134°50'510.1
2018-Apr-14 00:01N 34°31' E 134°44'510.8
2018-Apr-13 23:31N 34°29' E 134°38'611.1
2018-Apr-13 23:00N 34°27' E 134°32'611.0
2018-Apr-13 22:30N 34°25' E 134°26'88 9.5
2018-Apr-13 13:14N 34°03' E 132°43'310.7
2018-Apr-13 13:00N 34°02' E 132°40'1110.9
2018-Apr-13 12:02N 33°55' E 132°30'111.2
2018-Apr-13 11:58N 33°55' E 132°29'711.7
2018-Apr-13 11:21N 33°50' E 132°23'411.6
2018-Apr-13 11:00N 33°50' E 132°18'611.9
2018-Apr-13 10:30N 33°50' E 132°10'510.7
2018-Apr-13 10:00N 33°52' E 132°04'1311.0
2018-Apr-13 08:46N 33°55' E 131°49'310.6
2018-Apr-13 08:28N 33°58' E 131°46'510.7
2018-Apr-13 08:00N 34°02' E 131°44'2 0.6
2018-Apr-13 03:44N 34°03' E 131°46'0 1.4
2018-Apr-13 03:30N 34°03' E 131°46'2 2.2
2018-Apr-13 02:37N 34°03' E 131°44'0 0.1
2018-Apr-13 02:25N 34°03' E 131°44'0 0.2
2018-Apr-13 01:49N 34°03' E 131°43'0 0.0
2018-Apr-13 01:25N 34°03' E 131°43'0 0.0
2018-Apr-13 00:55N 34°03' E 131°43'0 0.0
2018-Apr-13 00:25N 34°03' E 131°43'0 0.0
2018-Apr-12 23:55N 34°03' E 131°43'0 0.1
2018-Apr-12 23:19N 34°03' E 131°43'0 0.0
2018-Apr-12 22:55N 34°03' E 131°43'0 0.0
2018-Apr-12 22:19N 34°03' E 131°43'0 0.0
2018-Apr-12 21:55N 34°03' E 131°43'0 0.0
2018-Apr-12 21:25N 34°03' E 131°43'1 2.7
2018-Apr-12 21:01N 34°02' E 131°42'0 0.1
2018-Apr-12 20:28N 34°02' E 131°42'0 0.1
2018-Apr-12 19:57N 34°02' E 131°42'0 0.0
2018-Apr-12 19:30N 34°02' E 131°42'3 5.2
2018-Apr-12 19:00N 34°00' E 131°44'612.2
2018-Apr-12 18:30N 33°55' E 131°48'812.5
2018-Apr-12 17:53N 33°51' E 131°55'512.5
2018-Apr-12 17:30N 33°48' E 131°60'610.1
2018-Apr-12 16:56N 33°48' E 132°07'1412.4
2018-Apr-12 15:50N 33°50' E 132°23'513.2
2018-Apr-12 15:27N 33°54' E 132°27'813.5
2018-Apr-12 14:51N 33°59' E 132°34'412.8
2018-Apr-12 14:30N 34°02' E 132°39'6 0.3
2018-Apr-11 17:39N 33°60' E 132°45'312.0
2018-Apr-11 17:24N 33°57' E 132°43'511.6
2018-Apr-11 17:00N 33°55' E 132°39'611.9
2018-Apr-11 16:29N 33°50' E 132°34'611.9
2018-Apr-11 15:57N 33°46' E 132°28'511.7
2018-Apr-11 15:30N 33°42' E 132°23'611.8
2018-Apr-11 15:00N 33°38' E 132°18'1711.7
2018-Apr-11 13:35N 33°27' E 132°04'111.8
2018-Apr-11 13:28N 33°26' E 132°03'9 0.3
2018-Apr-10 08:36N 33°17' E 132°00'110.6
2018-Apr-10 08:30N 33°19' E 131°60'710.0
2018-Apr-10 07:47N 33°25' E 132°03'1110.5
2018-Apr-10 06:42N 33°33' E 132°13'211.1
2018-Apr-10 06:30N 33°34' E 132°15'611.3
2018-Apr-10 06:00N 33°38' E 132°20'611.5
2018-Apr-10 05:28N 33°43' E 132°25'611.6
2018-Apr-10 04:59N 33°47' E 132°30'611.5
2018-Apr-10 04:29N 33°51' E 132°34'612.3
2018-Apr-10 04:00N 33°55' E 132°39'612.0
2018-Apr-10 03:30N 33°60' E 132°44'  
Track history (hours):
 
Tides and Currents Weather Stations Pressure Air Temp Water Temp Dewpoint Dewpoint Depression Visibility Wind Speed Wind Dir Waves Ship Positions

Kyokuho Maru No.15

Last reported at 2018-Apr-19 19:42 UTC. Time now 2018-Apr-21 09:52 UTC.
Position N 33°14' E 132°01'.

Length 63 m; draft 4.2 m.

Type: Tanker. MMSI: 431301714.

Date/timePositionNaut miles runAvg speedWind from/ knotsBaromVisibWave heightAir tempDewpointWater temp
2018-Apr-19 19:42N 33°14' E 132°01'313.6
2018-Apr-19 19:30N 33°17' E 132°00'611.9
2018-Apr-19 19:00N 33°23' E 131°60'913.0
2018-Apr-19 18:20N 33°29' E 132°07'412.8
2018-Apr-19 18:00N 33°32' E 132°11'612.4
2018-Apr-19 17:30N 33°36' E 132°16'612.1
2018-Apr-19 16:58N 33°41' E 132°21'611.6
2018-Apr-19 16:28N 33°45' E 132°26'511.3
2018-Apr-19 16:00N 33°49' E 132°31'711.0
2018-Apr-19 15:25N 33°53' E 132°36'4 9.8
2018-Apr-19 15:00N 33°56' E 132°40'4 8.6
2018-Apr-19 14:30N 33°59' E 132°43'78 1.5
2018-Apr-17 11:25N 34°25' E 134°12'612.6
2018-Apr-17 10:56N 34°25' E 134°20'511.8
2018-Apr-17 10:30N 34°27' E 134°26'611.7
2018-Apr-17 10:00N 34°29' E 134°32'611.8
2018-Apr-17 09:30N 34°31' E 134°39'611.6
2018-Apr-17 09:00N 34°33' E 134°45'611.4
2018-Apr-17 08:30N 34°35' E 134°52'510.9
2018-Apr-17 08:00N 34°37' E 134°58'4 8.5
2018-Apr-17 07:30N 34°36' E 135°03'510.8
2018-Apr-17 07:00N 34°37' E 135°09'611.4
2018-Apr-17 06:30N 34°38' E 135°16'2 3.4
2018-Apr-17 06:00N 34°39' E 135°18'0 0.0
2018-Apr-17 05:30N 34°39' E 135°18'0 0.0
2018-Apr-17 05:00N 34°39' E 135°18'0 0.1
2018-Apr-17 04:30N 34°39' E 135°18'0 0.1
2018-Apr-17 04:01N 34°39' E 135°18'0 0.1
2018-Apr-17 03:30N 34°39' E 135°18'0 0.0
2018-Apr-17 03:00N 34°39' E 135°18'0 0.0
2018-Apr-17 02:30N 34°39' E 135°18'0 0.0
2018-Apr-17 02:00N 34°39' E 135°18'0 0.0
2018-Apr-17 01:30N 34°39' E 135°18'0 0.0
2018-Apr-17 01:01N 34°39' E 135°18'0 0.0
2018-Apr-17 00:30N 34°39' E 135°18'0 0.0
2018-Apr-17 00:00N 34°39' E 135°18'0 0.0
2018-Apr-16 23:29N 34°39' E 135°18'0 0.0
2018-Apr-16 23:00N 34°39' E 135°18'0 0.0
2018-Apr-16 22:30N 34°39' E 135°18'0 0.5
2018-Apr-16 22:00N 34°39' E 135°17'2 3.5
2018-Apr-16 21:30N 34°38' E 135°19'612.2
2018-Apr-16 21:00N 34°33' E 135°23'2 4.1
2018-Apr-16 20:28N 34°31' E 135°24'0 0.0
2018-Apr-16 19:58N 34°31' E 135°24'0 0.0
2018-Apr-16 19:28N 34°31' E 135°24'0 0.0
2018-Apr-16 18:58N 34°31' E 135°24'0 0.0
2018-Apr-16 18:28N 34°31' E 135°24'0 0.0
2018-Apr-16 17:55N 34°31' E 135°24'0 0.0
2018-Apr-16 17:28N 34°31' E 135°24'0 0.0
2018-Apr-16 16:58N 34°31' E 135°24'0 0.0
2018-Apr-16 16:28N 34°31' E 135°24'0 0.0
2018-Apr-16 15:58N 34°31' E 135°24'0 0.0
2018-Apr-16 15:28N 34°31' E 135°24'0 0.0
2018-Apr-16 14:55N 34°31' E 135°24'0 0.0
2018-Apr-16 14:28N 34°31' E 135°24'0 0.0
2018-Apr-16 13:58N 34°31' E 135°24'0 0.0
2018-Apr-16 13:28N 34°31' E 135°24'0 0.0
2018-Apr-16 12:58N 34°31' E 135°24'0 0.0
2018-Apr-16 12:28N 34°31' E 135°24'0 0.0
2018-Apr-16 11:55N 34°31' E 135°24'0 0.0
2018-Apr-16 11:28N 34°31' E 135°24'0 0.0
2018-Apr-16 10:58N 34°31' E 135°24'0 0.0
2018-Apr-16 10:25N 34°31' E 135°24'0 0.0
2018-Apr-16 09:58N 34°31' E 135°24'0 0.0
2018-Apr-16 09:25N 34°31' E 135°24'0 0.0
2018-Apr-16 08:58N 34°31' E 135°24'0 0.0
2018-Apr-16 08:25N 34°31' E 135°24'0 0.0
2018-Apr-16 07:58N 34°31' E 135°24'0 0.0
2018-Apr-16 07:31N 34°31' E 135°24'4 7.4
2018-Apr-16 07:01N 34°34' E 135°23'611.5
2018-Apr-16 06:30N 34°40' E 135°25'0 0.5
2018-Apr-16 05:59N 34°40' E 135°25'0 0.0
2018-Apr-16 05:29N 34°40' E 135°25'0 0.0
2018-Apr-16 04:59N 34°40' E 135°25'0 0.0
2018-Apr-16 04:29N 34°40' E 135°25'0 0.0
2018-Apr-16 03:53N 34°40' E 135°25'0 0.0
2018-Apr-16 03:30N 34°40' E 135°25'0 0.0
2018-Apr-16 03:00N 34°40' E 135°25'0 0.0
2018-Apr-16 02:30N 34°40' E 135°25'0 0.0
2018-Apr-16 02:00N 34°40' E 135°25'1 2.2
2018-Apr-16 01:31N 34°39' E 135°25'2 4.1
2018-Apr-16 01:00N 34°38' E 135°27'1 1.4
2018-Apr-16 00:30N 34°38' E 135°27'1 2.4
2018-Apr-16 00:00N 34°38' E 135°29'0 0.0
2018-Apr-15 23:27N 34°38' E 135°29'0 0.0
2018-Apr-15 23:00N 34°38' E 135°29'0 0.0
2018-Apr-15 22:30N 34°38' E 135°29'0 0.1
2018-Apr-15 22:00N 34°38' E 135°29'0 0.1
2018-Apr-15 21:27N 34°38' E 135°29'0 0.1
2018-Apr-15 21:00N 34°38' E 135°29'0 0.0
2018-Apr-15 20:30N 34°38' E 135°29'0 0.0
2018-Apr-15 19:57N 34°38' E 135°29'0 0.1
2018-Apr-15 19:30N 34°38' E 135°29'0 0.1
2018-Apr-15 19:00N 34°38' E 135°29'0 0.1
2018-Apr-15 18:30N 34°38' E 135°29'0 0.0
2018-Apr-15 17:57N 34°38' E 135°29'0 0.1
2018-Apr-15 17:30N 34°38' E 135°29'0 0.1
2018-Apr-15 17:00N 34°38' E 135°29'0 0.1
2018-Apr-15 16:30N 34°38' E 135°29'0 0.1
2018-Apr-15 16:00N 34°38' E 135°29'0 0.0
2018-Apr-15 15:30N 34°38' E 135°29'0 0.0
2018-Apr-15 15:00N 34°38' E 135°29'0 0.0
2018-Apr-15 14:30N 34°38' E 135°29'0 0.0
2018-Apr-15 14:00N 34°38' E 135°29'0 0.0
2018-Apr-15 13:27N 34°38' E 135°29'0 0.1
2018-Apr-15 13:00N 34°38' E 135°29'0 0.1
2018-Apr-15 12:30N 34°38' E 135°29'0 0.0
2018-Apr-15 12:00N 34°38' E 135°29'0 0.1
2018-Apr-15 11:30N 34°38' E 135°29'0 0.1
2018-Apr-15 11:00N 34°38' E 135°29'0 0.0
2018-Apr-15 10:27N 34°38' E 135°29'0 0.1
2018-Apr-15 10:00N 34°38' E 135°29'0 0.0
2018-Apr-15 09:27N 34°38' E 135°29'0 0.1
2018-Apr-15 09:00N 34°38' E 135°29'0 0.1
2018-Apr-15 08:30N 34°38' E 135°29'0 0.1
2018-Apr-15 08:00N 34°38' E 135°29'0 0.0
2018-Apr-15 07:30N 34°38' E 135°29'0 0.0
2018-Apr-15 07:00N 34°38' E 135°29'0 0.0
2018-Apr-15 06:30N 34°38' E 135°29'0 0.1
2018-Apr-15 06:00N 34°38' E 135°29'0 0.0
2018-Apr-15 05:30N 34°38' E 135°29'0 0.0
2018-Apr-15 04:57N 34°38' E 135°29'0 0.1
2018-Apr-15 04:30N 34°38' E 135°29'0 0.1
2018-Apr-15 04:00N 34°38' E 135°29'0 0.1
2018-Apr-15 03:30N 34°38' E 135°29'0 0.0
2018-Apr-15 03:00N 34°38' E 135°29'0 0.0
2018-Apr-15 02:30N 34°38' E 135°29'0 0.1
2018-Apr-15 02:00N 34°38' E 135°29'0 0.0
2018-Apr-15 01:30N 34°38' E 135°29'0 0.1
2018-Apr-15 01:00N 34°38' E 135°29'0 0.0
2018-Apr-15 00:30N 34°38' E 135°29'0 0.0
2018-Apr-15 00:00N 34°38' E 135°29'0 0.0
2018-Apr-14 23:30N 34°38' E 135°29'0 0.1
2018-Apr-14 23:00N 34°38' E 135°29'0 0.0
2018-Apr-14 22:27N 34°38' E 135°29'0 0.1
2018-Apr-14 22:00N 34°38' E 135°29'0 0.0
2018-Apr-14 21:27N 34°38' E 135°29'0 0.0
2018-Apr-14 20:57N 34°38' E 135°29'0 0.0
2018-Apr-14 20:30N 34°38' E 135°29'0 0.0
2018-Apr-14 20:00N 34°38' E 135°29'0 0.0
2018-Apr-14 19:30N 34°38' E 135°29'0 0.0
2018-Apr-14 18:57N 34°38' E 135°29'0 0.0
2018-Apr-14 18:30N 34°38' E 135°29'0 0.0
2018-Apr-14 18:00N 34°38' E 135°29'0 0.0
2018-Apr-14 17:30N 34°38' E 135°29'0 0.0
2018-Apr-14 17:00N 34°38' E 135°29'0 0.0
2018-Apr-14 16:27N 34°38' E 135°29'0 0.0
2018-Apr-14 15:57N 34°38' E 135°29'0 0.0
2018-Apr-14 15:27N 34°38' E 135°29'0 0.0
2018-Apr-14 15:00N 34°38' E 135°29'0 0.0
2018-Apr-14 14:30N 34°38' E 135°29'0 0.0
2018-Apr-14 13:57N 34°38' E 135°29'0 0.0
2018-Apr-14 13:30N 34°38' E 135°29'0 0.0
2018-Apr-14 13:00N 34°38' E 135°29'0 0.1
2018-Apr-14 12:27N 34°38' E 135°29'0 0.1
2018-Apr-14 12:00N 34°38' E 135°29'0 0.0
2018-Apr-14 11:27N 34°38' E 135°29'0 0.0
2018-Apr-14 11:00N 34°38' E 135°29'0 0.0
2018-Apr-14 10:30N 34°38' E 135°29'0 0.0
2018-Apr-14 10:00N 34°38' E 135°29'0 0.1
2018-Apr-14 09:30N 34°38' E 135°29'0 0.1
2018-Apr-14 09:00N 34°38' E 135°29'0 0.4
2018-Apr-14 08:30N 34°38' E 135°29'3 5.9
2018-Apr-14 08:00N 34°39' E 135°25'611.3
2018-Apr-14 07:30N 34°40' E 135°18'3 6.4
2018-Apr-14 06:59N 34°42' E 135°15'0 0.0
2018-Apr-14 06:29N 34°42' E 135°15'0 0.0
2018-Apr-14 05:59N 34°42' E 135°15'0 0.0
2018-Apr-14 05:29N 34°42' E 135°15'0 0.0
2018-Apr-14 04:59N 34°42' E 135°15'0 0.0
2018-Apr-14 04:29N 34°42' E 135°15'0 0.0
2018-Apr-14 04:00N 34°42' E 135°15'0 0.0
2018-Apr-14 03:30N 34°42' E 135°15'0 0.7
2018-Apr-14 03:00N 34°42' E 135°15'4 8.4
2018-Apr-14 02:30N 34°38' E 135°15'611.2
2018-Apr-14 02:00N 34°36' E 135°09'510.8
2018-Apr-14 01:30N 34°36' E 135°02'511.0
2018-Apr-14 01:00N 34°35' E 134°56'510.4
2018-Apr-14 00:30N 34°33' E 134°50'510.1
2018-Apr-14 00:01N 34°31' E 134°44'510.8
2018-Apr-13 23:31N 34°29' E 134°38'611.1
2018-Apr-13 23:00N 34°27' E 134°32'611.0
2018-Apr-13 22:30N 34°25' E 134°26'88 9.5
2018-Apr-13 13:14N 34°03' E 132°43'310.7
2018-Apr-13 13:00N 34°02' E 132°40'1110.9
2018-Apr-13 12:02N 33°55' E 132°30'111.2
2018-Apr-13 11:58N 33°55' E 132°29'711.7
2018-Apr-13 11:21N 33°50' E 132°23'411.6
2018-Apr-13 11:00N 33°50' E 132°18'611.9
2018-Apr-13 10:30N 33°50' E 132°10'510.7
2018-Apr-13 10:00N 33°52' E 132°04'1311.0
2018-Apr-13 08:46N 33°55' E 131°49'310.6
2018-Apr-13 08:28N 33°58' E 131°46'510.7
2018-Apr-13 08:00N 34°02' E 131°44'2 0.6
2018-Apr-13 03:44N 34°03' E 131°46'0 1.4
2018-Apr-13 03:30N 34°03' E 131°46'2 2.2
2018-Apr-13 02:37N 34°03' E 131°44'0 0.1
2018-Apr-13 02:25N 34°03' E 131°44'0 0.2
2018-Apr-13 01:49N 34°03' E 131°43'0 0.0
2018-Apr-13 01:25N 34°03' E 131°43'0 0.0
2018-Apr-13 00:55N 34°03' E 131°43'0 0.0
2018-Apr-13 00:25N 34°03' E 131°43'0 0.0
2018-Apr-12 23:55N 34°03' E 131°43'0 0.1
2018-Apr-12 23:19N 34°03' E 131°43'0 0.0
2018-Apr-12 22:55N 34°03' E 131°43'0 0.0
2018-Apr-12 22:19N 34°03' E 131°43'0 0.0
2018-Apr-12 21:55N 34°03' E 131°43'0 0.0
2018-Apr-12 21:25N 34°03' E 131°43'1 2.7
2018-Apr-12 21:01N 34°02' E 131°42'0 0.1
2018-Apr-12 20:28N 34°02' E 131°42'0 0.1
2018-Apr-12 19:57N 34°02' E 131°42'0 0.0
2018-Apr-12 19:30N 34°02' E 131°42'3 5.2
2018-Apr-12 19:00N 34°00' E 131°44'612.2
2018-Apr-12 18:30N 33°55' E 131°48'812.5
2018-Apr-12 17:53N 33°51' E 131°55'512.5
2018-Apr-12 17:30N 33°48' E 131°60'610.1
2018-Apr-12 16:56N 33°48' E 132°07'1412.4
2018-Apr-12 15:50N 33°50' E 132°23'513.2
2018-Apr-12 15:27N 33°54' E 132°27'813.5
2018-Apr-12 14:51N 33°59' E 132°34'412.8
2018-Apr-12 14:30N 34°02' E 132°39'6 0.3
2018-Apr-11 17:39N 33°60' E 132°45'312.0
2018-Apr-11 17:24N 33°57' E 132°43'511.6
2018-Apr-11 17:00N 33°55' E 132°39'611.9
2018-Apr-11 16:29N 33°50' E 132°34'611.9
2018-Apr-11 15:57N 33°46' E 132°28'511.7
2018-Apr-11 15:30N 33°42' E 132°23'611.8
2018-Apr-11 15:00N 33°38' E 132°18'1711.7
2018-Apr-11 13:35N 33°27' E 132°04'111.8
2018-Apr-11 13:28N 33°26' E 132°03'9 0.3
2018-Apr-10 08:36N 33°17' E 132°00'110.6
2018-Apr-10 08:30N 33°19' E 131°60'710.0
2018-Apr-10 07:47N 33°25' E 132°03'1110.5
2018-Apr-10 06:42N 33°33' E 132°13'211.1
2018-Apr-10 06:30N 33°34' E 132°15'611.3
2018-Apr-10 06:00N 33°38' E 132°20'611.5
2018-Apr-10 05:28N 33°43' E 132°25'611.6
2018-Apr-10 04:59N 33°47' E 132°30'611.5
2018-Apr-10 04:29N 33°51' E 132°34'612.3
2018-Apr-10 04:00N 33°55' E 132°39'612.0
2018-Apr-10 03:30N 33°60' E 132°44'  

Dump ship's entire track history